Time;durP1;ratioP1;P1;durP2;ratioP2;P2;SDS_P1;SDS_P2;PMS_P1;PMS_P2;Temp;Humidity;BMP_temperature;BMP_pressure;BME280_temperature;BME280_humidity;BME280_pressure;Samples;Min_cycle;Max_cycle;Signal;HPM_P1;HPM_P2
2023/10/28 00:00:51;;;;;;;8.80;3.20;;;;;;;24.60;49.84;99597.24;106938;1256;25351;-67
2023/10/28 00:03:18;;;;;;;7.00;2.90;;;;;;;24.59;49.30;99589.34;107095;1252;25348;-67
2023/10/28 00:05:45;;;;;;;10.60;3.10;;;;;;;24.60;49.01;99577.05;107124;1254;25412;-68
2023/10/28 00:08:13;;;;;;;13.30;4.40;;;;;;;24.59;48.82;99576.71;107080;1256;25424;-67
2023/10/28 00:10:41;;;;;;;27.40;5.90;;;;;;;24.59;48.96;99565.41;107143;1253;25297;-67
2023/10/28 00:13:08;;;;;;;17.90;5.20;;;;;;;24.57;49.55;99548.53;107261;1254;25498;-68
2023/10/28 00:15:36;;;;;;;12.70;4.30;;;;;;;24.56;50.02;99554.05;107152;1253;25354;-67
2023/10/28 00:18:03;;;;;;;14.40;5.30;;;;;;;24.53;50.42;99561.59;107159;1253;24024;-67
2023/10/28 00:20:30;;;;;;;17.00;4.50;;;;;;;24.51;50.66;99561.47;107190;1250;24321;-67
2023/10/28 00:22:57;;;;;;;20.60;5.50;;;;;;;24.49;50.86;99563.58;106872;1258;25438;-67
2023/10/28 00:25:31;;;;;;;13.10;5.10;;;;;;;24.47;51.14;99560.73;106908;1258;22952;-67
2023/10/28 00:27:58;;;;;;;17.10;5.20;;;;;;;24.46;51.71;99555.01;106876;1270;22643;-65
2023/10/28 00:30:26;;;;;;;15.50;5.50;;;;;;;24.45;52.11;99558.34;107105;1254;25347;-66
2023/10/28 00:32:57;;;;;;;13.80;4.80;;;;;;;24.44;52.26;99565.89;107129;1256;25532;-68
2023/10/28 00:35:25;;;;;;;15.60;4.60;;;;;;;24.42;52.25;99560.20;107061;1256;25376;-66
2023/10/28 00:37:52;;;;;;;18.60;5.40;;;;;;;24.41;52.08;99564.34;107186;1253;25347;-66
2023/10/28 00:40:20;;;;;;;14.30;4.20;;;;;;;24.41;51.67;99567.77;107146;1253;25496;-66
2023/10/28 00:42:47;;;;;;;13.20;4.20;;;;;;;24.41;51.16;99564.52;106886;1258;25348;-67
2023/10/28 00:45:15;;;;;;;17.30;5.80;;;;;;;24.43;50.79;99560.84;106814;1259;25428;-67
2023/10/28 00:47:44;;;;;;;22.50;7.10;;;;;;;24.42;50.80;99568.83;107139;1255;25367;-68
2023/10/28 00:50:12;;;;;;;23.60;7.10;;;;;;;24.42;51.17;99583.17;107158;1249;25415;-66
2023/10/28 00:52:41;;;;;;;20.10;6.00;;;;;;;24.43;51.60;99587.17;107147;1262;23862;-66
2023/10/28 00:55:10;;;;;;;17.40;5.10;;;;;;;24.46;51.56;99591.52;107132;1256;25243;-67
2023/10/28 00:57:42;;;;;;;13.30;4.50;;;;;;;24.47;51.04;99597.95;107111;1268;25265;-68
2023/10/28 01:00:11;;;;;;;10.40;4.50;;;;;;;24.47;50.64;99604.52;107113;1254;26510;-69
2023/10/28 01:02:39;;;;;;;8.40;3.30;;;;;;;24.47;50.28;99615.01;106554;1258;23978;-69
2023/10/28 01:05:11;;;;;;;12.00;3.50;;;;;;;24.46;50.28;99617.19;106765;1264;24203;-67
2023/10/28 01:07:40;;;;;;;11.10;3.00;;;;;;;24.46;50.03;99627.14;106768;1256;25373;-67
2023/10/28 01:10:08;;;;;;;4.70;2.50;;;;;;;24.47;49.59;99629.02;106968;1262;24245;-66
2023/10/28 01:12:35;;;;;;;6.10;2.80;;;;;;;24.46;49.12;99620.95;106899;1265;22544;-66
2023/10/28 01:15:02;;;;;;;9.70;2.80;;;;;;;24.46;48.65;99621.86;107112;1264;25518;-67
2023/10/28 01:17:31;;;;;;;7.00;3.00;;;;;;;24.46;48.22;99623.31;107225;1249;22523;-67
2023/10/28 01:19:58;;;;;;;7.70;3.10;;;;;;;24.46;48.06;99630.23;107151;1256;25403;-66
2023/10/28 01:22:26;;;;;;;9.60;2.90;;;;;;;24.46;48.05;99635.17;106893;1271;25382;-66
2023/10/28 01:24:54;;;;;;;11.30;3.10;;;;;;;24.44;47.83;99638.68;107197;1255;25468;-67
2023/10/28 01:27:20;;;;;;;8.10;2.70;;;;;;;24.44;47.91;99645.28;107144;1255;25379;-67
2023/10/28 01:29:47;;;;;;;5.80;2.60;;;;;;;24.42;47.81;99643.00;107090;1262;25365;-67
2023/10/28 01:32:15;;;;;;;10.50;3.20;;;;;;;24.40;47.79;99640.02;107115;1254;25358;-67
2023/10/28 01:34:50;;;;;;;10.30;3.00;;;;;;;24.37;47.71;99634.44;107064;1257;24328;-65
2023/10/28 01:37:17;;;;;;;12.90;3.30;;;;;;;24.37;47.61;99638.49;106843;1258;25341;-67
2023/10/28 01:39:50;;;;;;;8.50;2.90;;;;;;;24.37;47.62;99633.85;107052;1256;25484;-67
2023/10/28 01:42:18;;;;;;;14.00;3.30;;;;;;;24.38;47.48;99635.02;107192;1264;25418;-67
2023/10/28 01:44:45;;;;;;;6.30;2.60;;;;;;;24.37;47.21;99633.86;107119;1253;22530;-67
2023/10/28 01:47:13;;;;;;;8.50;3.40;;;;;;;24.36;47.16;99641.61;107133;1253;22765;-67
2023/10/28 01:49:40;;;;;;;8.00;2.90;;;;;;;24.34;46.85;99649.59;107099;1254;25392;-68
2023/10/28 01:52:10;;;;;;;9.50;2.80;;;;;;;24.31;46.92;99650.24;107203;1256;25395;-67
2023/10/28 01:54:37;;;;;;;5.70;2.40;;;;;;;24.29;46.69;99652.45;107224;1260;25523;-67
2023/10/28 01:57:06;;;;;;;4.80;2.60;;;;;;;24.26;46.72;99652.83;107049;1256;25376;-66
2023/10/28 01:59:33;;;;;;;5.10;2.80;;;;;;;24.25;46.30;99654.30;107087;1256;25476;-68
2023/10/28 02:02:03;;;;;;;9.70;2.60;;;;;;;24.23;46.34;99658.71;107267;1262;25408;-68
2023/10/28 02:04:31;;;;;;;9.10;2.10;;;;;;;24.22;46.16;99651.27;107068;1256;24215;-72
2023/10/28 02:06:59;;;;;;;7.20;2.80;;;;;;;24.21;45.95;99652.61;106916;1272;25510;-67
2023/10/28 02:09:27;;;;;;;4.80;2.40;;;;;;;24.18;45.96;99662.77;106982;1257;25300;-67
2023/10/28 02:11:55;;;;;;;4.60;2.20;;;;;;;24.15;45.97;99675.96;107182;1266;24253;-66
2023/10/28 02:14:23;;;;;;;5.70;2.20;;;;;;;24.12;45.84;99679.64;107109;1255;25501;-67
2023/10/28 02:16:50;;;;;;;7.40;2.40;;;;;;;24.10;45.65;99684.84;107284;1259;25376;-67
2023/10/28 02:19:21;;;;;;;8.30;2.40;;;;;;;24.07;45.82;99690.98;106759;1272;25523;-68
2023/10/28 02:21:49;;;;;;;7.80;2.70;;;;;;;24.04;45.78;99697.60;107126;1257;22530;-68
2023/10/28 02:24:34;;;;;;;5.80;2.30;;;;;;;24.02;45.74;99698.33;107242;1253;25338;-67
2023/10/28 02:27:02;;;;;;;5.80;2.30;;;;;;;24.00;45.70;99702.77;107168;1253;25351;-67
2023/10/28 02:29:29;;;;;;;3.20;2.00;;;;;;;23.98;45.60;99707.36;107172;1253;22599;-67
2023/10/28 02:31:56;;;;;;;6.00;2.00;;;;;;;23.96;45.47;99710.73;107115;1253;25376;-67
2023/10/28 02:34:23;;;;;;;3.00;2.00;;;;;;;23.94;45.63;99708.14;107078;1253;25478;-70
2023/10/28 02:36:50;;;;;;;7.10;2.50;;;;;;;23.91;45.62;99706.83;107041;1269;25348;-69
2023/10/28 02:39:17;;;;;;;3.90;2.00;;;;;;;23.88;45.48;99707.84;106868;1257;25424;-70
2023/10/28 02:41:45;;;;;;;5.20;2.10;;;;;;;23.84;45.53;99709.55;106969;1256;25335;-68
2023/10/28 02:44:12;;;;;;;6.80;2.00;;;;;;;23.81;45.65;99715.89;107059;1253;22527;-65
2023/10/28 02:46:40;;;;;;;5.00;1.70;;;;;;;23.78;45.64;99720.83;107176;1256;25362;-67
2023/10/28 02:49:07;;;;;;;5.20;2.00;;;;;;;23.76;45.67;99716.94;106722;1259;402866;-67
2023/10/28 02:51:34;;;;;;;5.10;2.30;;;;;;;23.73;45.59;99715.09;107241;1263;25502;-69
2023/10/28 02:54:02;;;;;;;4.90;2.20;;;;;;;23.71;45.57;99717.18;106777;1268;24365;-68
2023/10/28 02:56:29;;;;;;;5.30;2.30;;;;;;;23.70;45.63;99722.98;107122;1253;22527;-70
2023/10/28 02:58:56;;;;;;;5.60;1.60;;;;;;;23.69;45.43;99724.83;106892;1265;25331;-67
2023/10/28 03:01:23;;;;;;;5.00;2.10;;;;;;;23.66;45.49;99728.11;106973;1272;25365;-68
2023/10/28 03:03:52;;;;;;;7.40;2.00;;;;;;;23.63;45.45;99733.39;107143;1253;25424;-71
2023/10/28 03:06:19;;;;;;;6.70;2.10;;;;;;;23.60;45.26;99732.25;107266;1256;25246;-66
2023/10/28 03:08:46;;;;;;;2.70;1.80;;;;;;;23.56;45.40;99736.48;107171;1256;25428;-69
2023/10/28 03:11:13;;;;;;;5.40;2.30;;;;;;;23.53;45.35;99738.00;107059;1254;23261;-69
2023/10/28 03:13:40;;;;;;;5.50;2.00;;;;;;;23.49;45.51;99737.11;107026;1256;22608;-69
2023/10/28 03:16:08;;;;;;;4.10;1.90;;;;;;;23.47;45.64;99737.00;107111;1253;25497;-69
2023/10/28 03:18:35;;;;;;;4.40;2.10;;;;;;;23.44;45.66;99734.59;107079;1259;25337;-74
2023/10/28 03:21:02;;;;;;;4.90;1.80;;;;;;;23.42;45.68;99740.38;106905;1258;25484;-68
2023/10/28 03:23:29;;;;;;;4.10;1.90;;;;;;;23.41;45.52;99740.54;106957;1266;25380;-68
2023/10/28 03:25:57;;;;;;;4.50;2.00;;;;;;;23.39;45.54;99749.87;107173;1256;25348;-68
2023/10/28 03:28:25;;;;;;;5.00;2.00;;;;;;;23.37;45.53;99747.98;107187;1253;25347;-68
2023/10/28 03:30:53;;;;;;;5.20;2.30;;;;;;;23.34;45.61;99754.11;107195;1256;25341;-68
2023/10/28 03:33:22;;;;;;;4.50;1.90;;;;;;;23.30;45.53;99760.92;107286;1253;25327;-68
2023/10/28 03:35:49;;;;;;;3.30;1.50;;;;;;;23.28;45.54;99773.72;107109;1256;25367;-68
2023/10/28 03:38:16;;;;;;;4.70;2.10;;;;;;;23.25;45.58;99776.27;107175;1256;25440;-68
2023/10/28 03:40:43;;;;;;;9.30;2.40;;;;;;;23.22;45.52;99775.84;107107;1257;25337;-74
2023/10/28 03:43:10;;;;;;;2.50;1.90;;;;;;;23.20;45.51;99770.71;107094;1255;22535;-68
2023/10/28 03:45:37;;;;;;;3.30;1.80;;;;;;;23.18;45.49;99772.15;106920;1272;25379;-67
2023/10/28 03:48:05;;;;;;;5.40;1.90;;;;;;;23.15;45.51;99775.04;107237;1256;25414;-69
2023/10/28 03:50:32;;;;;;;4.10;2.10;;;;;;;23.15;45.27;99776.35;106832;1257;25376;-69
2023/10/28 03:52:59;;;;;;;7.60;2.20;;;;;;;23.13;45.30;99781.43;107092;1259;25376;-69
2023/10/28 03:55:27;;;;;;;3.80;1.80;;;;;;;23.11;45.18;99790.09;107085;1253;25440;-69
2023/10/28 03:57:55;;;;;;;4.20;2.00;;;;;;;23.10;45.10;99787.76;107099;1256;25421;-69
2023/10/28 04:00:22;;;;;;;5.50;2.10;;;;;;;23.07;45.05;99792.22;107187;1253;25443;-69
2023/10/28 04:02:52;;;;;;;4.30;2.00;;;;;;;23.04;45.19;99799.05;106871;1272;25485;-75
2023/10/28 04:05:19;;;;;;;3.40;2.10;;;;;;;23.00;45.15;99805.45;106959;1260;25423;-68
2023/10/28 04:07:47;;;;;;;4.60;1.80;;;;;;;22.96;45.25;99811.06;106867;1267;25449;-68
2023/10/28 04:10:14;;;;;;;3.60;1.90;;;;;;;22.94;45.18;99818.39;107153;1253;22517;-70
2023/10/28 04:12:41;;;;;;;3.80;1.80;;;;;;;22.90;45.09;99822.23;107103;1259;25347;-68
2023/10/28 04:15:09;;;;;;;4.20;1.80;;;;;;;22.88;44.96;99821.39;107006;1253;23938;-69
2023/10/28 04:17:36;;;;;;;3.20;2.20;;;;;;;22.85;45.00;99822.52;107042;1253;25348;-68
2023/10/28 04:20:04;;;;;;;4.40;2.00;;;;;;;22.83;44.82;99822.84;107183;1252;25414;-68
2023/10/28 04:22:32;;;;;;;4.50;2.00;;;;;;;22.81;44.83;99832.27;107197;1261;25406;-69
2023/10/28 04:24:59;;;;;;;2.60;2.00;;;;;;;22.79;44.92;99839.67;106841;1260;25236;-67
2023/10/28 04:27:26;;;;;;;3.70;2.10;;;;;;;22.76;44.87;99857.94;107062;1254;25348;-68
2023/10/28 04:29:53;;;;;;;3.70;1.70;;;;;;;22.73;44.96;99857.73;106724;1266;25533;-68
2023/10/28 04:32:22;;;;;;;5.00;2.50;;;;;;;22.69;45.00;99859.85;106909;1256;24202;-68
2023/10/28 04:34:52;;;;;;;3.20;1.50;;;;;;;22.64;44.93;99857.18;107201;1262;24182;-74
2023/10/28 04:37:28;;;;;;;4.00;1.80;;;;;;;22.60;45.09;99859.09;107092;1256;25365;-68
2023/10/28 04:39:55;;;;;;;4.70;1.90;;;;;;;22.59;44.99;99865.09;107175;1253;25372;-68
2023/10/28 04:42:22;;;;;;;3.50;2.40;;;;;;;22.56;44.87;99873.25;107224;1263;25362;-68
2023/10/28 04:44:49;;;;;;;6.00;1.70;;;;;;;22.55;44.77;99883.05;107137;1256;25497;-69
2023/10/28 04:47:16;;;;;;;6.20;1.70;;;;;;;22.54;44.73;99890.76;107140;1262;25387;-69
2023/10/28 04:49:43;;;;;;;5.80;2.00;;;;;;;22.53;44.64;99891.71;106874;1258;25324;-68
2023/10/28 04:52:11;;;;;;;2.60;1.60;;;;;;;22.51;44.59;99899.46;107163;1262;24223;-68
2023/10/28 04:54:38;;;;;;;2.80;1.80;;;;;;;22.49;44.46;99906.52;107072;1259;25495;-68
2023/10/28 04:57:05;;;;;;;4.30;1.80;;;;;;;22.48;44.34;99912.29;107014;1259;24398;-69
2023/10/28 04:59:32;;;;;;;2.30;1.70;;;;;;;22.45;44.41;99912.67;107245;1262;25428;-67
2023/10/28 05:02:00;;;;;;;5.40;2.00;;;;;;;22.43;44.39;99914.28;107114;1256;25463;-68
2023/10/28 05:04:27;;;;;;;5.50;1.60;;;;;;;22.41;44.25;99918.67;107186;1254;25376;-68
2023/10/28 05:06:54;;;;;;;3.20;1.60;;;;;;;22.40;44.26;99923.74;107181;1256;25330;-69
2023/10/28 05:09:21;;;;;;;4.80;1.60;;;;;;;22.39;44.07;99935.87;106884;1259;24219;-68
2023/10/28 05:11:51;;;;;;;4.00;1.80;;;;;;;22.38;44.10;99944.77;106955;1270;25338;-69
2023/10/28 05:14:18;;;;;;;3.30;1.80;;;;;;;22.38;44.07;99951.43;106823;1272;22636;-69
2023/10/28 05:16:45;;;;;;;2.40;1.70;;;;;;;22.39;44.04;99955.08;106889;1266;24177;-68
2023/10/28 05:19:13;;;;;;;5.30;2.50;;;;;;;22.40;43.94;99963.84;107169;1256;25498;-69
2023/10/28 05:21:40;;;;;;;4.00;2.80;;;;;;;22.41;43.91;99970.14;107166;1255;23294;-68
2023/10/28 05:24:07;;;;;;;4.30;2.70;;;;;;;22.41;43.90;99976.66;107098;1254;24180;-69
2023/10/28 05:26:34;;;;;;;7.90;3.10;;;;;;;22.40;43.95;99980.64;106933;1268;25388;-69
2023/10/28 05:29:02;;;;;;;8.50;4.30;;;;;;;22.38;43.94;99974.64;106877;1266;25356;-69
2023/10/28 05:31:29;;;;;;;6.80;4.70;;;;;;;22.36;44.01;99976.05;107207;1257;25341;-69
2023/10/28 05:33:56;;;;;;;7.60;5.40;;;;;;;22.33;44.01;99978.23;106822;1257;24125;-69
2023/10/28 05:36:23;;;;;;;7.20;5.40;;;;;;;22.30;44.13;99985.02;106727;1257;22519;-68
2023/10/28 05:38:53;;;;;;;8.00;4.60;;;;;;;22.27;44.35;99985.41;107040;1259;25344;-69
2023/10/28 05:41:21;;;;;;;4.20;2.80;;;;;;;22.25;44.32;99993.53;107001;1260;24250;-69
2023/10/28 05:43:48;;;;;;;3.30;2.40;;;;;;;22.24;44.30;99998.93;107141;1256;25497;-67
2023/10/28 05:46:16;;;;;;;4.40;2.20;;;;;;;22.23;44.33;100003.25;107199;1256;25463;-69
2023/10/28 05:48:44;;;;;;;5.00;2.60;;;;;;;22.23;44.34;100007.70;107176;1257;25421;-69
2023/10/28 05:51:11;;;;;;;4.80;2.60;;;;;;;22.22;44.17;100012.51;106931;1262;25463;-68
2023/10/28 05:53:38;;;;;;;3.90;2.30;;;;;;;22.22;44.26;100021.70;107038;1253;25348;-71
2023/10/28 05:56:06;;;;;;;7.50;2.70;;;;;;;22.22;44.29;100025.76;106904;1256;25331;-67
2023/10/28 05:58:33;;;;;;;4.40;2.50;;;;;;;22.21;44.08;100027.27;106959;1256;25484;-68
2023/10/28 06:01:01;;;;;;;4.40;2.40;;;;;;;22.19;44.01;100035.05;107098;1256;25300;-68
2023/10/28 06:03:29;;;;;;;5.80;2.20;;;;;;;22.18;44.09;100041.83;107188;1256;23888;-68
2023/10/28 06:05:56;;;;;;;6.10;2.60;;;;;;;22.18;44.09;100047.19;107148;1256;25365;-69
2023/10/28 06:08:23;;;;;;;5.20;2.50;;;;;;;22.19;44.05;100057.31;107088;1257;25571;-69
2023/10/28 06:10:50;;;;;;;4.30;2.10;;;;;;;22.20;43.90;100061.44;106963;1259;25355;-73
2023/10/28 06:13:17;;;;;;;4.50;2.60;;;;;;;22.22;43.72;100067.14;106827;1255;22546;-69
2023/10/28 06:15:44;;;;;;;3.80;2.10;;;;;;;22.24;43.77;100074.42;107311;1254;25484;-69
2023/10/28 06:18:11;;;;;;;3.80;1.90;;;;;;;22.31;43.47;100080.86;107120;1262;25348;-69
2023/10/28 06:20:39;;;;;;;4.10;1.70;;;;;;;22.38;43.25;100084.75;107191;1257;25413;-69
2023/10/28 06:23:07;;;;;;;2.50;1.50;;;;;;;22.45;43.12;100088.59;107246;1260;22523;-68
2023/10/28 06:25:37;;;;;;;2.50;1.40;;;;;;;22.52;42.68;100099.96;107091;1256;25357;-69
2023/10/28 06:28:05;;;;;;;2.10;1.50;;;;;;;22.60;42.35;100105.73;107059;1256;25376;-73
2023/10/28 06:30:33;;;;;;;3.00;1.60;;;;;;;22.70;41.97;100110.27;107130;1257;24196;-69
2023/10/28 06:33:02;;;;;;;2.40;1.20;;;;;;;22.79;41.92;100110.73;107195;1254;25359;-69
2023/10/28 06:35:30;;;;;;;2.30;1.50;;;;;;;22.87;41.67;100111.81;107258;1253;24218;-69
2023/10/28 06:37:57;;;;;;;2.50;1.40;;;;;;;22.95;41.54;100120.58;107146;1264;25474;-69
2023/10/28 06:40:24;;;;;;;3.20;1.30;;;;;;;23.01;40.89;100126.61;107092;1256;25385;-69
2023/10/28 06:42:52;;;;;;;1.10;0.90;;;;;;;23.06;40.72;100140.11;107227;1253;25497;-69
2023/10/28 06:45:19;;;;;;;2.00;1.20;;;;;;;23.12;40.33;100145.27;107153;1254;25526;-69
2023/10/28 06:47:46;;;;;;;2.20;1.40;;;;;;;23.17;40.37;100150.20;107006;1265;22763;-69
2023/10/28 06:50:19;;;;;;;2.30;1.40;;;;;;;23.20;40.23;100154.34;107221;1258;25348;-68
2023/10/28 06:52:49;;;;;;;2.20;1.20;;;;;;;23.25;39.97;100160.44;107103;1262;25356;-68
2023/10/28 06:55:17;;;;;;;1.40;1.00;;;;;;;23.31;39.98;100166.89;107028;1257;25366;-69
2023/10/28 06:57:47;;;;;;;1.30;1.10;;;;;;;23.37;39.41;100174.13;107216;1254;25517;-69
2023/10/28 07:00:15;;;;;;;4.50;1.10;;;;;;;23.42;39.31;100180.46;107145;1266;25327;-68
2023/10/28 07:02:44;;;;;;;2.20;1.10;;;;;;;23.48;39.06;100181.77;106746;1272;25337;-68
2023/10/28 07:05:14;;;;;;;0.70;0.70;;;;;;;23.53;38.95;100181.88;107247;1256;25349;-69
2023/10/28 07:07:41;;;;;;;0.70;0.60;;;;;;;23.58;38.66;100188.30;107160;1263;25372;-68
2023/10/28 07:10:10;;;;;;;2.90;0.90;;;;;;;23.64;38.34;100191.01;107166;1265;25396;-67
2023/10/28 07:12:37;;;;;;;1.00;0.80;;;;;;;23.68;37.84;100196.27;106835;1259;25498;-69
2023/10/28 07:15:04;;;;;;;2.20;0.90;;;;;;;23.72;37.62;100206.04;107133;1261;25365;-68
2023/10/28 07:17:33;;;;;;;1.20;0.70;;;;;;;23.77;37.35;100213.77;106882;1269;22517;-69
2023/10/28 07:20:01;;;;;;;1.00;0.90;;;;;;;23.82;37.12;100216.55;107164;1256;24206;-70
2023/10/28 07:22:31;;;;;;;1.20;0.80;;;;;;;23.86;37.26;100223.42;107218;1256;25341;-69
2023/10/28 07:24:58;;;;;;;2.40;0.60;;;;;;;23.91;37.13;100230.43;107161;1258;25488;-75
2023/10/28 07:27:26;;;;;;;2.40;0.80;;;;;;;23.96;36.91;100237.65;107084;1256;25344;-71
2023/10/28 07:29:53;;;;;;;1.70;0.70;;;;;;;24.01;37.00;100252.59;107114;1269;24496;-71
2023/10/28 07:32:21;;;;;;;1.40;1.10;;;;;;;24.06;36.56;100251.87;106959;1272;24244;-77
2023/10/28 07:34:48;;;;;;;3.70;1.00;;;;;;;24.10;36.48;100255.90;107021;1269;24029;-68
2023/10/28 07:37:18;;;;;;;1.20;0.70;;;;;;;24.15;36.31;100256.23;106865;1269;25532;-68
2023/10/28 07:39:48;;;;;;;0.50;0.50;;;;;;;24.20;36.05;100265.35;106828;1254;24264;-68
2023/10/28 07:42:15;;;;;;;3.50;0.60;;;;;;;24.24;36.04;100267.30;106973;1267;25356;-67
2023/10/28 07:44:43;;;;;;;1.00;0.50;;;;;;;24.29;35.90;100271.17;107034;1270;25446;-68
2023/10/28 07:47:11;;;;;;;2.60;0.60;;;;;;;24.30;35.82;100274.09;107226;1253;25369;-67
2023/10/28 07:49:38;;;;;;;1.30;0.70;;;;;;;24.34;35.95;100274.34;107140;1256;22578;-68
2023/10/28 07:52:07;;;;;;;2.20;0.90;;;;;;;24.40;35.65;100278.76;106650;1259;25383;-68
2023/10/28 07:54:34;;;;;;;2.00;0.80;;;;;;;24.45;35.35;100284.63;106494;1260;25376;-68
2023/10/28 07:57:02;;;;;;;0.80;0.70;;;;;;;24.49;35.38;100279.67;106739;1266;25428;-68
2023/10/28 07:59:29;;;;;;;1.20;0.50;;;;;;;24.55;35.56;100287.87;106605;1271;24314;-68
2023/10/28 08:01:58;;;;;;;2.60;0.80;;;;;;;24.59;35.34;100294.05;106994;1269;25497;-68
2023/10/28 08:04:25;;;;;;;1.20;0.90;;;;;;;24.64;35.37;100301.60;107071;1253;25494;-70
2023/10/28 08:06:53;;;;;;;1.60;0.50;;;;;;;24.68;35.33;100307.98;107121;1266;25419;-68
2023/10/28 08:09:20;;;;;;;1.20;1.00;;;;;;;24.73;35.53;100313.59;107116;1269;25431;-69
2023/10/28 08:11:47;;;;;;;5.20;0.90;;;;;;;24.78;35.41;100316.73;107141;1266;25347;-70
2023/10/28 08:14:14;;;;;;;2.70;0.70;;;;;;;24.82;35.02;100323.26;106915;1270;25365;-69
2023/10/28 08:16:41;;;;;;;1.10;0.70;;;;;;;24.87;34.67;100330.78;107048;1272;26641;-70
2023/10/28 08:19:09;;;;;;;1.00;0.70;;;;;;;24.92;34.53;100337.64;107044;1269;25347;-70
2023/10/28 08:21:36;;;;;;;3.30;0.80;;;;;;;24.97;34.57;100345.36;106232;1256;1003040;-70
2023/10/28 08:24:04;;;;;;;2.00;0.70;;;;;;;25.02;34.30;100353.22;107047;1260;24331;-70
2023/10/28 08:26:31;;;;;;;2.40;0.70;;;;;;;25.07;34.04;100354.39;107108;1263;22526;-68
2023/10/28 08:29:00;;;;;;;1.60;0.60;;;;;;;25.12;33.48;100360.30;106901;1267;24227;-69
2023/10/28 08:31:28;;;;;;;2.10;0.50;;;;;;;25.17;32.87;100364.35;106305;1263;1003301;-70
2023/10/28 08:33:55;;;;;;;0.90;0.50;;;;;;;25.21;32.81;100364.16;107176;1263;25621;-70
2023/10/28 08:36:25;;;;;;;1.10;0.50;;;;;;;25.24;32.33;100362.77;107133;1263;25366;-75
2023/10/28 08:38:52;;;;;;;0.80;0.50;;;;;;;25.28;32.34;100360.82;106848;1259;25338;-69
2023/10/28 08:41:21;;;;;;;2.30;1.00;;;;;;;25.32;31.99;100351.27;107129;1261;25422;-70
2023/10/28 08:43:53;;;;;;;1.50;0.50;;;;;;;25.35;31.89;100359.50;107161;1254;25383;-70
2023/10/28 08:46:21;;;;;;;0.70;0.40;;;;;;;25.39;31.76;100367.67;107182;1263;25444;-70
2023/10/28 08:48:48;;;;;;;1.20;0.60;;;;;;;25.43;31.60;100371.80;107185;1256;22605;-68
2023/10/28 08:51:19;;;;;;;1.00;0.50;;;;;;;25.47;31.63;100370.31;107003;1263;25412;-66
2023/10/28 08:53:46;;;;;;;2.00;0.50;;;;;;;25.52;31.66;100369.73;107128;1263;22527;-66
2023/10/28 08:56:17;;;;;;;1.40;0.70;;;;;;;25.55;31.66;100366.22;107176;1253;25459;-66
2023/10/28 08:58:48;;;;;;;0.50;0.50;;;;;;;25.60;31.39;100367.96;107125;1269;25372;-68
2023/10/28 09:01:17;;;;;;;3.10;0.80;;;;;;;25.63;31.24;100367.61;107347;1253;25413;-65
2023/10/28 09:03:46;;;;;;;0.80;0.60;;;;;;;25.67;30.98;100362.34;107226;1251;22633;-65
2023/10/28 09:06:13;;;;;;;0.90;0.50;;;;;;;25.70;31.05;100363.46;107301;1261;23861;-64
2023/10/28 09:08:40;;;;;;;6.70;1.10;;;;;;;25.74;31.02;100366.83;107551;1264;25300;-71
2023/10/28 09:11:07;;;;;;;2.30;0.50;;;;;;;25.77;31.03;100367.59;107516;1253;25414;-66
2023/10/28 09:13:36;;;;;;;1.00;0.50;;;;;;;25.79;30.57;100375.05;107005;1273;26503;-65
2023/10/28 09:16:06;;;;;;;0.90;0.60;;;;;;;25.83;30.63;100374.52;107262;1260;22530;-67
2023/10/28 09:18:39;;;;;;;2.10;0.70;;;;;;;25.90;30.28;100381.56;106976;1261;22514;-65
2023/10/28 09:21:09;;;;;;;0.90;0.50;;;;;;;25.95;30.09;100389.39;107965;1257;23928;-64
2023/10/28 09:23:37;;;;;;;0.90;0.40;;;;;;;25.99;30.08;100386.54;107082;1268;25314;-67
2023/10/28 09:26:05;;;;;;;0.70;0.50;;;;;;;26.04;29.67;100385.39;107201;1253;25263;-62
2023/10/28 09:28:34;;;;;;;4.80;0.60;;;;;;;26.08;29.19;100384.30;107341;1261;24359;-63
2023/10/28 09:31:05;;;;;;;1.70;0.80;;;;;;;26.12;28.99;100379.46;107201;1266;25331;-67
2023/10/28 09:33:32;;;;;;;3.90;0.50;;;;;;;26.17;28.99;100381.15;107255;1253;22527;-68
2023/10/28 09:36:00;;;;;;;4.80;0.90;;;;;;;26.22;28.62;100389.63;106985;1263;25338;-72
2023/10/28 09:38:28;;;;;;;0.70;0.50;;;;;;;26.26;28.46;100390.27;107363;1263;24204;-62
2023/10/28 09:40:58;;;;;;;1.90;0.50;;;;;;;26.31;27.56;100397.30;107312;1268;25338;-65
2023/10/28 09:43:26;;;;;;;1.80;0.60;;;;;;;26.34;27.40;100389.75;107119;1256;22570;-64
2023/10/28 09:45:56;;;;;;;2.10;0.50;;;;;;;26.37;27.25;100383.59;107138;1266;23872;-65
2023/10/28 09:48:23;;;;;;;4.50;0.40;;;;;;;26.40;27.21;100382.89;107273;1262;25497;-63
2023/10/28 09:50:53;;;;;;;1.60;0.50;;;;;;;26.44;27.03;100378.79;107287;1272;25366;-67
2023/10/28 09:53:40;;;;;;;1.30;0.40;;;;;;;26.48;26.45;100381.95;107229;1269;25369;-68
2023/10/28 09:56:07;;;;;;;1.40;0.30;;;;;;;26.53;26.03;100388.82;107274;1257;22533;-64
2023/10/28 09:58:41;;;;;;;0.80;0.30;;;;;;;26.57;25.80;100383.98;106932;1250;23278;-64
2023/10/28 10:01:46;;;;;;;1.30;0.40;;;;;;;26.61;25.70;100387.81;107515;1256;22967;-61
2023/10/28 10:04:38;;;;;;;2.00;0.30;;;;;;;26.66;26.07;100397.50;107165;1252;25363;-63
2023/10/28 10:07:04;;;;;;;;;;;;;;;26.71;26.19;100401.33;107333;1257;22514;-62
2023/10/28 10:09:42;;;;;;;0.70;0.40;;;;;;;26.76;25.89;100402.34;107237;1263;24360;-65
2023/10/28 10:12:10;;;;;;;2.10;0.40;;;;;;;26.79;25.89;100394.84;106901;1260;22674;-64
2023/10/28 10:14:39;;;;;;;0.50;0.40;;;;;;;26.83;25.64;100392.53;107397;1265;25363;-62
2023/10/28 10:17:16;;;;;;;0.70;0.50;;;;;;;26.87;25.78;100394.64;107140;1250;24273;-69
2023/10/28 10:19:43;;;;;;;2.50;0.80;;;;;;;26.92;25.23;100399.37;107160;1257;24149;-62
2023/10/28 10:22:10;;;;;;;3.20;0.70;;;;;;;26.94;24.70;100402.15;107258;1261;25414;-66
2023/10/28 10:24:48;;;;;;;1.90;0.50;;;;;;;26.95;24.23;100401.66;107355;1251;23164;-66
2023/10/28 10:27:15;;;;;;;4.80;0.40;;;;;;;26.97;24.10;100401.85;107091;1258;24207;-62
2023/10/28 10:29:42;;;;;;;1.70;0.40;;;;;;;26.99;24.07;100403.27;107301;1258;25501;-63
2023/10/28 10:32:17;;;;;;;0.50;0.30;;;;;;;27.02;23.96;100408.09;107472;1256;23167;-62
2023/10/28 10:34:45;;;;;;;2.30;0.30;;;;;;;27.04;23.85;100415.04;107310;1257;25321;-64
2023/10/28 10:37:25;;;;;;;4.10;0.30;;;;;;;27.06;23.16;100421.96;106782;1257;25399;-64
2023/10/28 10:39:54;;;;;;;1.60;0.40;;;;;;;27.07;23.01;100415.98;106987;1257;24410;-60
2023/10/28 10:42:21;;;;;;;4.50;0.30;;;;;;;27.08;23.08;100420.52;107265;1251;25362;-59
2023/10/28 10:44:48;;;;;;;1.10;0.30;;;;;;;27.08;22.95;100424.10;107223;1266;25535;-55
2023/10/28 10:47:17;;;;;;;1.50;0.50;;;;;;;27.08;23.12;100427.30;107103;1257;24217;-57
2023/10/28 10:49:44;;;;;;;1.20;0.40;;;;;;;27.09;23.18;100425.98;106991;1262;25386;-57
2023/10/28 10:52:12;;;;;;;2.00;0.30;;;;;;;27.09;23.27;100432.00;106853;1260;22558;-59
2023/10/28 10:54:40;;;;;;;1.80;0.50;;;;;;;27.11;23.21;100431.09;106319;1270;1003533;-56
2023/10/28 10:57:08;;;;;;;5.00;0.40;;;;;;;27.14;23.48;100435.66;107271;1264;25414;-58
2023/10/28 10:59:36;;;;;;;0.40;0.30;;;;;;;27.16;23.52;100433.09;106885;1260;25341;-54
2023/10/28 11:02:03;;;;;;;0.80;0.40;;;;;;;27.19;23.26;100439.41;107126;1264;22547;-55
2023/10/28 11:04:34;;;;;;;0.90;0.50;;;;;;;27.22;22.81;100445.92;106980;1257;25396;-55
2023/10/28 11:07:04;;;;;;;1.00;0.30;;;;;;;27.23;22.75;100450.91;107171;1257;23322;-55
2023/10/28 11:09:37;;;;;;;3.00;0.30;;;;;;;27.25;23.13;100450.23;107200;1254;25338;-57
2023/10/28 11:12:05;;;;;;;2.10;0.30;;;;;;;27.26;23.18;100452.60;107088;1267;22605;-56
2023/10/28 11:14:32;;;;;;;2.40;0.60;;;;;;;27.28;23.13;100459.05;107240;1263;22551;-56
2023/10/28 11:16:59;;;;;;;3.30;0.40;;;;;;;27.29;22.94;100465.02;107178;1254;25549;-54
2023/10/28 11:19:27;;;;;;;1.70;0.50;;;;;;;27.29;22.76;100464.48;107355;1260;23857;-57
2023/10/28 11:21:54;;;;;;;1.90;0.40;;;;;;;27.30;23.04;100467.41;107336;1257;25469;-55
2023/10/28 11:24:22;;;;;;;1.30;0.50;;;;;;;27.33;22.81;100476.55;107178;1264;25365;-60